sensor_id;sensor_type;location;lat;lon;timestamp;P1;durP1;ratioP1;P2;durP2;ratioP2
48789;SDS011;41718;51.980;5.734;2023-01-16T00:03:36;2.08;;;1.20;;
48789;SDS011;41718;51.980;5.734;2023-01-16T00:08:38;5.07;;;2.63;;
48789;SDS011;41718;51.980;5.734;2023-01-16T00:13:39;2.83;;;2.55;;
48789;SDS011;41718;51.980;5.734;2023-01-16T00:18:41;4.93;;;2.20;;
48789;SDS011;41718;51.980;5.734;2023-01-16T00:23:43;4.57;;;2.17;;
48789;SDS011;41718;51.980;5.734;2023-01-16T00:28:44;5.68;;;2.22;;
48789;SDS011;41718;51.980;5.734;2023-01-16T00:33:46;6.07;;;3.38;;
48789;SDS011;41718;51.980;5.734;2023-01-16T00:38:47;5.70;;;3.63;;
48789;SDS011;41718;51.980;5.734;2023-01-16T00:43:50;9.40;;;4.00;;
48789;SDS011;41718;51.980;5.734;2023-01-16T00:48:53;4.07;;;3.35;;
48789;SDS011;41718;51.980;5.734;2023-01-16T00:53:54;6.75;;;4.70;;
48789;SDS011;41718;51.980;5.734;2023-01-16T00:58:55;6.60;;;5.30;;
48789;SDS011;41718;51.980;5.734;2023-01-16T01:03:58;10.85;;;7.35;;
48789;SDS011;41718;51.980;5.734;2023-01-16T01:09:00;9.00;;;7.13;;
48789;SDS011;41718;51.980;5.734;2023-01-16T01:14:02;6.47;;;5.82;;
48789;SDS011;41718;51.980;5.734;2023-01-16T01:19:04;7.80;;;6.97;;
48789;SDS011;41718;51.980;5.734;2023-01-16T01:24:05;7.88;;;6.43;;
48789;SDS011;41718;51.980;5.734;2023-01-16T01:29:07;10.35;;;7.72;;
48789;SDS011;41718;51.980;5.734;2023-01-16T01:34:08;11.48;;;8.20;;
48789;SDS011;41718;51.980;5.734;2023-01-16T01:39:10;9.27;;;7.18;;
48789;SDS011;41718;51.980;5.734;2023-01-16T01:44:56;12.10;;;9.40;;
48789;SDS011;41718;51.980;5.734;2023-01-16T01:49:52;13.80;;;8.20;;
48789;SDS011;41718;51.980;5.734;2023-01-16T01:54:56;12.60;;;5.78;;
48789;SDS011;41718;51.980;5.734;2023-01-16T02:00:05;10.45;;;5.63;;
48789;SDS011;41718;51.980;5.734;2023-01-16T02:05:10;10.27;;;6.18;;
48789;SDS011;41718;51.980;5.734;2023-01-16T02:15:41;10.30;;;3.80;;
48789;SDS011;41718;51.980;5.734;2023-01-16T02:21:16;7.43;;;3.28;;
48789;SDS011;41718;51.980;5.734;2023-01-16T02:48:06;7.60;;;2.28;;
48789;SDS011;41718;51.980;5.734;2023-01-16T02:53:19;2.50;;;1.83;;
48789;SDS011;41718;51.980;5.734;2023-01-16T02:58:29;13.45;;;2.70;;
48789;SDS011;41718;51.980;5.734;2023-01-16T03:03:41;5.28;;;1.95;;
48789;SDS011;41718;51.980;5.734;2023-01-16T03:09:13;3.10;;;1.50;;
48789;SDS011;41718;51.980;5.734;2023-01-16T03:14:35;4.70;;;2.03;;
48789;SDS011;41718;51.980;5.734;2023-01-16T03:19:58;13.10;;;3.40;;
48789;SDS011;41718;51.980;5.734;2023-01-16T03:25:16;6.25;;;2.08;;
48789;SDS011;41718;51.980;5.734;2023-01-16T03:35:36;4.40;;;2.55;;
48789;SDS011;41718;51.980;5.734;2023-01-16T03:40:43;4.90;;;2.88;;
48789;SDS011;41718;51.980;5.734;2023-01-16T03:45:49;4.65;;;2.38;;
48789;SDS011;41718;51.980;5.734;2023-01-16T03:50:57;4.03;;;2.92;;
48789;SDS011;41718;51.980;5.734;2023-01-16T04:01:26;7.20;;;2.17;;
48789;SDS011;41718;51.980;5.734;2023-01-16T04:06:52;7.50;;;1.95;;
48789;SDS011;41718;51.980;5.734;2023-01-16T04:11:55;5.97;;;2.08;;
48789;SDS011;41718;51.980;5.734;2023-01-16T04:16:59;5.43;;;2.10;;
48789;SDS011;41718;51.980;5.734;2023-01-16T04:22:04;3.08;;;2.28;;
48789;SDS011;41718;51.980;5.734;2023-01-16T04:27:09;1.80;;;1.33;;
48789;SDS011;41718;51.980;5.734;2023-01-16T04:32:10;2.80;;;1.40;;
48789;SDS011;41718;51.980;5.734;2023-01-16T04:37:13;8.10;;;2.00;;
48789;SDS011;41718;51.980;5.734;2023-01-16T04:42:16;6.75;;;1.95;;
48789;SDS011;41718;51.980;5.734;2023-01-16T04:47:17;4.88;;;1.88;;
48789;SDS011;41718;51.980;5.734;2023-01-16T04:52:18;4.53;;;2.28;;
48789;SDS011;41718;51.980;5.734;2023-01-16T04:57:20;5.05;;;2.25;;
48789;SDS011;41718;51.980;5.734;2023-01-16T05:02:21;7.88;;;2.20;;
48789;SDS011;41718;51.980;5.734;2023-01-16T05:07:23;5.30;;;1.60;;
48789;SDS011;41718;51.980;5.734;2023-01-16T05:12:27;4.05;;;1.40;;
48789;SDS011;41718;51.980;5.734;2023-01-16T05:17:29;5.20;;;2.72;;
48789;SDS011;41718;51.980;5.734;2023-01-16T05:22:30;4.43;;;1.98;;
48789;SDS011;41718;51.980;5.734;2023-01-16T05:27:31;9.07;;;3.17;;
48789;SDS011;41718;51.980;5.734;2023-01-16T05:32:33;7.10;;;1.70;;
48789;SDS011;41718;51.980;5.734;2023-01-16T05:37:34;3.40;;;1.63;;
48789;SDS011;41718;51.980;5.734;2023-01-16T05:42:36;3.15;;;1.88;;
48789;SDS011;41718;51.980;5.734;2023-01-16T05:47:37;6.25;;;4.28;;
48789;SDS011;41718;51.980;5.734;2023-01-16T05:52:39;4.22;;;3.45;;
48789;SDS011;41718;51.980;5.734;2023-01-16T05:57:40;6.85;;;2.22;;
48789;SDS011;41718;51.980;5.734;2023-01-16T06:02:42;2.72;;;1.55;;
48789;SDS011;41718;51.980;5.734;2023-01-16T06:07:44;5.65;;;1.85;;
48789;SDS011;41718;51.980;5.734;2023-01-16T06:12:46;7.40;;;1.95;;
48789;SDS011;41718;51.980;5.734;2023-01-16T06:17:47;5.70;;;1.77;;
48789;SDS011;41718;51.980;5.734;2023-01-16T06:22:49;4.38;;;2.25;;
48789;SDS011;41718;51.980;5.734;2023-01-16T06:27:51;10.68;;;2.33;;
48789;SDS011;41718;51.980;5.734;2023-01-16T06:32:53;7.82;;;2.17;;
48789;SDS011;41718;51.980;5.734;2023-01-16T06:37:54;3.97;;;2.17;;
48789;SDS011;41718;51.980;5.734;2023-01-16T06:42:56;6.45;;;1.98;;
48789;SDS011;41718;51.980;5.734;2023-01-16T06:47:57;1.83;;;1.45;;
48789;SDS011;41718;51.980;5.734;2023-01-16T06:52:59;4.35;;;1.73;;
48789;SDS011;41718;51.980;5.734;2023-01-16T06:58:00;3.53;;;1.38;;
48789;SDS011;41718;51.980;5.734;2023-01-16T07:03:05;3.70;;;1.50;;
48789;SDS011;41718;51.980;5.734;2023-01-16T07:08:06;2.85;;;1.55;;
48789;SDS011;41718;51.980;5.734;2023-01-16T07:13:08;1.23;;;0.90;;
48789;SDS011;41718;51.980;5.734;2023-01-16T07:18:15;5.68;;;1.65;;
48789;SDS011;41718;51.980;5.734;2023-01-16T07:23:36;3.67;;;1.10;;
48789;SDS011;41718;51.980;5.734;2023-01-16T07:28:40;3.92;;;1.38;;
48789;SDS011;41718;51.980;5.734;2023-01-16T07:33:42;5.65;;;1.80;;
48789;SDS011;41718;51.980;5.734;2023-01-16T07:38:43;4.70;;;1.85;;
48789;SDS011;41718;51.980;5.734;2023-01-16T07:43:45;1.48;;;1.30;;
48789;SDS011;41718;51.980;5.734;2023-01-16T07:48:46;3.90;;;1.55;;
48789;SDS011;41718;51.980;5.734;2023-01-16T07:53:48;7.30;;;2.33;;
48789;SDS011;41718;51.980;5.734;2023-01-16T07:58:49;3.10;;;1.83;;
48789;SDS011;41718;51.980;5.734;2023-01-16T08:03:55;7.35;;;2.28;;
48789;SDS011;41718;51.980;5.734;2023-01-16T08:08:57;13.10;;;5.18;;
48789;SDS011;41718;51.980;5.734;2023-01-16T08:13:58;18.02;;;9.98;;
48789;SDS011;41718;51.980;5.734;2023-01-16T08:19:00;4.78;;;2.33;;
48789;SDS011;41718;51.980;5.734;2023-01-16T08:24:01;4.25;;;2.25;;
48789;SDS011;41718;51.980;5.734;2023-01-16T08:29:03;3.90;;;2.38;;
48789;SDS011;41718;51.980;5.734;2023-01-16T08:34:05;5.32;;;1.73;;
48789;SDS011;41718;51.980;5.734;2023-01-16T08:39:08;3.90;;;1.75;;
48789;SDS011;41718;51.980;5.734;2023-01-16T08:44:10;3.45;;;2.67;;
48789;SDS011;41718;51.980;5.734;2023-01-16T08:49:30;2.78;;;1.90;;
48789;SDS011;41718;51.980;5.734;2023-01-16T08:54:50;6.90;;;2.58;;
48789;SDS011;41718;51.980;5.734;2023-01-16T08:59:51;3.80;;;2.22;;
48789;SDS011;41718;51.980;5.734;2023-01-16T09:04:53;2.10;;;1.40;;
48789;SDS011;41718;51.980;5.734;2023-01-16T09:09:56;4.78;;;2.80;;
48789;SDS011;41718;51.980;5.734;2023-01-16T09:14:58;7.75;;;3.28;;
48789;SDS011;41718;51.980;5.734;2023-01-16T09:19:59;4.82;;;1.80;;
48789;SDS011;41718;51.980;5.734;2023-01-16T09:25:01;3.63;;;2.20;;
48789;SDS011;41718;51.980;5.734;2023-01-16T09:30:03;3.50;;;1.80;;
48789;SDS011;41718;51.980;5.734;2023-01-16T09:35:05;4.78;;;1.73;;
48789;SDS011;41718;51.980;5.734;2023-01-16T09:40:14;5.30;;;2.10;;
48789;SDS011;41718;51.980;5.734;2023-01-16T09:45:23;3.05;;;1.63;;
48789;SDS011;41718;51.980;5.734;2023-01-16T09:50:36;2.40;;;1.98;;
48789;SDS011;41718;51.980;5.734;2023-01-16T09:55:50;3.22;;;2.15;;
48789;SDS011;41718;51.980;5.734;2023-01-16T10:01:19;3.00;;;1.98;;
48789;SDS011;41718;51.980;5.734;2023-01-16T10:06:36;3.08;;;2.78;;
48789;SDS011;41718;51.980;5.734;2023-01-16T10:11:50;11.10;;;6.55;;
48789;SDS011;41718;51.980;5.734;2023-01-16T10:22:18;2.83;;;2.60;;
48789;SDS011;41718;51.980;5.734;2023-01-16T10:27:36;3.80;;;1.83;;
48789;SDS011;41718;51.980;5.734;2023-01-16T10:37:54;2.95;;;2.00;;
48789;SDS011;41718;51.980;5.734;2023-01-16T10:48:22;2.22;;;1.50;;
48789;SDS011;41718;51.980;5.734;2023-01-16T10:53:47;3.08;;;1.48;;
48789;SDS011;41718;51.980;5.734;2023-01-16T10:58:49;2.03;;;1.60;;
48789;SDS011;41718;51.980;5.734;2023-01-16T11:03:54;2.72;;;1.58;;
48789;SDS011;41718;51.980;5.734;2023-01-16T11:09:14;9.13;;;5.22;;
48789;SDS011;41718;51.980;5.734;2023-01-16T11:14:22;3.03;;;1.10;;
48789;SDS011;41718;51.980;5.734;2023-01-16T11:19:44;2.55;;;2.15;;
48789;SDS011;41718;51.980;5.734;2023-01-16T11:24:46;2.72;;;2.35;;
48789;SDS011;41718;51.980;5.734;2023-01-16T11:29:48;1.98;;;1.40;;
48789;SDS011;41718;51.980;5.734;2023-01-16T11:34:58;3.20;;;1.27;;
48789;SDS011;41718;51.980;5.734;2023-01-16T11:40:00;6.40;;;1.50;;
48789;SDS011;41718;51.980;5.734;2023-01-16T11:45:16;2.40;;;1.00;;
48789;SDS011;41718;51.980;5.734;2023-01-16T11:50:38;1.42;;;1.33;;
48789;SDS011;41718;51.980;5.734;2023-01-16T11:56:06;2.08;;;1.73;;
48789;SDS011;41718;51.980;5.734;2023-01-16T12:17:31;2.83;;;2.50;;
48789;SDS011;41718;51.980;5.734;2023-01-16T12:22:52;1.20;;;1.13;;
48789;SDS011;41718;51.980;5.734;2023-01-16T12:28:17;1.25;;;1.15;;
48789;SDS011;41718;51.980;5.734;2023-01-16T12:33:39;0.95;;;0.75;;
48789;SDS011;41718;51.980;5.734;2023-01-16T12:38:53;2.45;;;1.23;;
48789;SDS011;41718;51.980;5.734;2023-01-16T12:44:21;1.48;;;0.85;;
48789;SDS011;41718;51.980;5.734;2023-01-16T12:49:44;1.48;;;1.20;;
48789;SDS011;41718;51.980;5.734;2023-01-16T13:00:14;2.55;;;1.42;;
48789;SDS011;41718;51.980;5.734;2023-01-16T13:05:21;1.15;;;1.10;;
48789;SDS011;41718;51.980;5.734;2023-01-16T13:10:28;2.75;;;2.45;;
48789;SDS011;41718;51.980;5.734;2023-01-16T13:15:57;23.83;;;9.20;;
48789;SDS011;41718;51.980;5.734;2023-01-16T13:21:11;1.60;;;1.50;;
48789;SDS011;41718;51.980;5.734;2023-01-16T13:26:21;3.20;;;1.92;;
48789;SDS011;41718;51.980;5.734;2023-01-16T13:41:55;2.80;;;2.58;;
48789;SDS011;41718;51.980;5.734;2023-01-16T13:47:06;2.10;;;1.33;;
48789;SDS011;41718;51.980;5.734;2023-01-16T13:52:21;1.20;;;1.10;;
48789;SDS011;41718;51.980;5.734;2023-01-16T13:57:27;1.42;;;1.33;;
48789;SDS011;41718;51.980;5.734;2023-01-16T14:13:22;3.42;;;2.38;;
48789;SDS011;41718;51.980;5.734;2023-01-16T14:18:37;2.42;;;2.22;;
48789;SDS011;41718;51.980;5.734;2023-01-16T14:24:16;3.45;;;2.03;;
48789;SDS011;41718;51.980;5.734;2023-01-16T14:34:47;2.88;;;1.67;;
48789;SDS011;41718;51.980;5.734;2023-01-16T14:39:57;1.70;;;1.60;;
48789;SDS011;41718;51.980;5.734;2023-01-16T14:50:41;5.70;;;3.15;;
48789;SDS011;41718;51.980;5.734;2023-01-16T14:56:04;2.00;;;1.80;;
48789;SDS011;41718;51.980;5.734;2023-01-16T15:01:16;3.30;;;2.70;;
48789;SDS011;41718;51.980;5.734;2023-01-16T15:06:43;4.07;;;2.70;;
48789;SDS011;41718;51.980;5.734;2023-01-16T15:11:52;5.38;;;3.47;;
48789;SDS011;41718;51.980;5.734;2023-01-16T15:17:00;21.90;;;10.15;;
48789;SDS011;41718;51.980;5.734;2023-01-16T15:22:40;7.82;;;5.10;;
48789;SDS011;41718;51.980;5.734;2023-01-16T15:27:44;3.40;;;3.03;;
48789;SDS011;41718;51.980;5.734;2023-01-16T15:37:54;3.67;;;2.72;;
48789;SDS011;41718;51.980;5.734;2023-01-16T15:42:56;2.08;;;1.98;;
48789;SDS011;41718;51.980;5.734;2023-01-16T15:53:40;6.20;;;3.40;;
48789;SDS011;41718;51.980;5.734;2023-01-16T15:58:46;6.70;;;4.25;;
48789;SDS011;41718;51.980;5.734;2023-01-16T16:03:56;6.25;;;4.03;;
48789;SDS011;41718;51.980;5.734;2023-01-16T16:08:59;3.38;;;3.08;;
48789;SDS011;41718;51.980;5.734;2023-01-16T16:14:01;2.63;;;2.42;;
48789;SDS011;41718;51.980;5.734;2023-01-16T16:19:03;2.80;;;2.00;;
48789;SDS011;41718;51.980;5.734;2023-01-16T16:24:06;3.33;;;2.17;;
48789;SDS011;41718;51.980;5.734;2023-01-16T16:29:17;3.78;;;2.55;;
48789;SDS011;41718;51.980;5.734;2023-01-16T16:34:21;3.05;;;2.30;;
48789;SDS011;41718;51.980;5.734;2023-01-16T16:39:42;6.93;;;2.45;;
48789;SDS011;41718;51.980;5.734;2023-01-16T16:55:33;2.85;;;2.20;;
48789;SDS011;41718;51.980;5.734;2023-01-16T17:00:37;2.50;;;2.03;;
48789;SDS011;41718;51.980;5.734;2023-01-16T17:05:40;2.45;;;1.67;;
48789;SDS011;41718;51.980;5.734;2023-01-16T17:10:42;2.75;;;2.55;;
48789;SDS011;41718;51.980;5.734;2023-01-16T17:15:46;2.08;;;1.88;;
48789;SDS011;41718;51.980;5.734;2023-01-16T17:20:50;2.53;;;1.92;;
48789;SDS011;41718;51.980;5.734;2023-01-16T17:25:53;2.42;;;2.10;;
48789;SDS011;41718;51.980;5.734;2023-01-16T17:30:55;2.65;;;2.42;;
48789;SDS011;41718;51.980;5.734;2023-01-16T17:35:56;3.35;;;2.67;;
48789;SDS011;41718;51.980;5.734;2023-01-16T17:41:15;4.65;;;3.97;;
48789;SDS011;41718;51.980;5.734;2023-01-16T17:46:30;4.38;;;3.08;;
48789;SDS011;41718;51.980;5.734;2023-01-16T17:51:32;4.95;;;4.30;;
48789;SDS011;41718;51.980;5.734;2023-01-16T17:56:33;6.97;;;4.07;;
48789;SDS011;41718;51.980;5.734;2023-01-16T18:01:34;5.20;;;3.78;;
48789;SDS011;41718;51.980;5.734;2023-01-16T18:06:39;4.82;;;3.70;;
48789;SDS011;41718;51.980;5.734;2023-01-16T18:11:42;4.00;;;3.63;;
48789;SDS011;41718;51.980;5.734;2023-01-16T18:17:03;1.33;;;1.23;;
48789;SDS011;41718;51.980;5.734;2023-01-16T18:22:24;2.33;;;2.10;;
48789;SDS011;41718;51.980;5.734;2023-01-16T18:27:26;2.70;;;2.38;;
48789;SDS011;41718;51.980;5.734;2023-01-16T18:32:30;3.20;;;2.70;;
48789;SDS011;41718;51.980;5.734;2023-01-16T18:37:32;1.38;;;1.15;;
48789;SDS011;41718;51.980;5.734;2023-01-16T18:42:35;3.97;;;3.00;;
48789;SDS011;41718;51.980;5.734;2023-01-16T18:47:55;3.55;;;3.25;;
48789;SDS011;41718;51.980;5.734;2023-01-16T18:58:43;5.40;;;4.13;;
48789;SDS011;41718;51.980;5.734;2023-01-16T19:04:02;4.15;;;3.10;;
48789;SDS011;41718;51.980;5.734;2023-01-16T19:09:04;3.00;;;2.60;;
48789;SDS011;41718;51.980;5.734;2023-01-16T19:14:08;3.17;;;2.72;;
48789;SDS011;41718;51.980;5.734;2023-01-16T19:19:13;1.83;;;1.50;;
48789;SDS011;41718;51.980;5.734;2023-01-16T19:24:16;4.57;;;3.57;;
48789;SDS011;41718;51.980;5.734;2023-01-16T19:29:22;3.10;;;2.30;;
48789;SDS011;41718;51.980;5.734;2023-01-16T19:34:26;3.65;;;2.00;;
48789;SDS011;41718;51.980;5.734;2023-01-16T19:39:35;3.33;;;2.55;;
48789;SDS011;41718;51.980;5.734;2023-01-16T19:44:36;4.75;;;3.45;;
48789;SDS011;41718;51.980;5.734;2023-01-16T19:49:56;3.70;;;3.28;;
48789;SDS011;41718;51.980;5.734;2023-01-16T19:54:58;2.00;;;1.90;;
48789;SDS011;41718;51.980;5.734;2023-01-16T20:00:00;2.92;;;2.72;;
48789;SDS011;41718;51.980;5.734;2023-01-16T20:05:05;4.13;;;2.55;;
48789;SDS011;41718;51.980;5.734;2023-01-16T20:10:15;3.58;;;2.80;;
48789;SDS011;41718;51.980;5.734;2023-01-16T20:15:17;3.50;;;2.80;;
48789;SDS011;41718;51.980;5.734;2023-01-16T20:20:19;2.60;;;2.40;;
48789;SDS011;41718;51.980;5.734;2023-01-16T20:25:23;3.30;;;2.60;;
48789;SDS011;41718;51.980;5.734;2023-01-16T20:30:26;6.70;;;1.27;;
48789;SDS011;41718;51.980;5.734;2023-01-16T20:35:46;1.75;;;1.65;;
48789;SDS011;41718;51.980;5.734;2023-01-16T20:40:48;3.53;;;2.25;;
48789;SDS011;41718;51.980;5.734;2023-01-16T20:45:49;2.60;;;2.40;;
48789;SDS011;41718;51.980;5.734;2023-01-16T20:50:56;2.88;;;2.45;;
48789;SDS011;41718;51.980;5.734;2023-01-16T20:56:01;2.45;;;2.25;;
48789;SDS011;41718;51.980;5.734;2023-01-16T21:01:04;5.07;;;3.13;;
48789;SDS011;41718;51.980;5.734;2023-01-16T21:06:07;3.08;;;1.98;;
48789;SDS011;41718;51.980;5.734;2023-01-16T21:11:10;1.20;;;1.10;;
48789;SDS011;41718;51.980;5.734;2023-01-16T21:16:33;1.98;;;1.83;;
48789;SDS011;41718;51.980;5.734;2023-01-16T21:21:55;1.58;;;1.48;;
48789;SDS011;41718;51.980;5.734;2023-01-16T21:26:58;2.58;;;2.20;;
48789;SDS011;41718;51.980;5.734;2023-01-16T21:32:00;3.05;;;2.08;;
48789;SDS011;41718;51.980;5.734;2023-01-16T21:37:03;2.63;;;1.83;;
48789;SDS011;41718;51.980;5.734;2023-01-16T21:42:05;3.72;;;2.08;;
48789;SDS011;41718;51.980;5.734;2023-01-16T21:47:26;4.85;;;2.40;;
48789;SDS011;41718;51.980;5.734;2023-01-16T21:52:28;3.63;;;1.80;;
48789;SDS011;41718;51.980;5.734;2023-01-16T21:57:31;2.95;;;1.65;;
48789;SDS011;41718;51.980;5.734;2023-01-16T22:02:32;1.38;;;1.27;;
48789;SDS011;41718;51.980;5.734;2023-01-16T22:07:34;1.63;;;1.15;;
48789;SDS011;41718;51.980;5.734;2023-01-16T22:12:36;1.90;;;1.20;;
48789;SDS011;41718;51.980;5.734;2023-01-16T22:17:57;1.35;;;1.10;;
48789;SDS011;41718;51.980;5.734;2023-01-16T22:23:11;3.08;;;1.50;;
48789;SDS011;41718;51.980;5.734;2023-01-16T22:28:19;3.63;;;1.63;;
48789;SDS011;41718;51.980;5.734;2023-01-16T22:33:23;6.30;;;2.13;;
48789;SDS011;41718;51.980;5.734;2023-01-16T22:38:28;4.90;;;1.90;;
48789;SDS011;41718;51.980;5.734;2023-01-16T22:43:41;7.20;;;3.08;;
48789;SDS011;41718;51.980;5.734;2023-01-16T22:49:02;1.15;;;0.45;;
48789;SDS011;41718;51.980;5.734;2023-01-16T22:54:04;0.93;;;0.93;;
48789;SDS011;41718;51.980;5.734;2023-01-16T22:59:08;0.75;;;0.73;;
48789;SDS011;41718;51.980;5.734;2023-01-16T23:04:09;2.30;;;0.98;;
48789;SDS011;41718;51.980;5.734;2023-01-16T23:09:12;1.27;;;0.95;;
48789;SDS011;41718;51.980;5.734;2023-01-16T23:14:14;4.32;;;0.70;;
48789;SDS011;41718;51.980;5.734;2023-01-16T23:19:19;1.83;;;1.10;;
48789;SDS011;41718;51.980;5.734;2023-01-16T23:24:24;3.13;;;1.15;;
48789;SDS011;41718;51.980;5.734;2023-01-16T23:29:28;0.73;;;0.73;;
48789;SDS011;41718;51.980;5.734;2023-01-16T23:34:31;2.67;;;0.80;;
48789;SDS011;41718;51.980;5.734;2023-01-16T23:39:32;0.65;;;0.65;;
48789;SDS011;41718;51.980;5.734;2023-01-16T23:44:35;0.88;;;0.43;;
48789;SDS011;41718;51.980;5.734;2023-01-16T23:49:41;2.38;;;0.95;;
48789;SDS011;41718;51.980;5.734;2023-01-16T23:54:45;1.42;;;0.60;;
48789;SDS011;41718;51.980;5.734;2023-01-16T23:59:47;3.10;;;0.57;;
